sensor_id;sensor_type;location;lat;lon;timestamp;P1;durP1;ratioP1;P2;durP2;ratioP2
43529;SDS011;55654;50.966;6.878;2023-01-01T00:02:06;16.13;;;6.85;;
43529;SDS011;55654;50.966;6.878;2023-01-01T00:04:33;13.57;;;6.20;;
43529;SDS011;55654;50.966;6.878;2023-01-01T00:07:01;13.90;;;7.18;;
43529;SDS011;55654;50.966;6.878;2023-01-01T00:09:27;15.85;;;5.82;;
43529;SDS011;55654;50.966;6.878;2023-01-01T00:12:12;17.75;;;6.63;;
43529;SDS011;55654;50.966;6.878;2023-01-01T00:14:38;13.23;;;6.15;;
43529;SDS011;55654;50.966;6.878;2023-01-01T00:17:06;16.52;;;6.43;;
43529;SDS011;55654;50.966;6.878;2023-01-01T00:19:32;15.77;;;6.45;;
43529;SDS011;55654;50.966;6.878;2023-01-01T00:21:58;11.60;;;6.03;;
43529;SDS011;55654;50.966;6.878;2023-01-01T00:24:27;17.13;;;5.75;;
43529;SDS011;55654;50.966;6.878;2023-01-01T00:26:55;11.65;;;5.07;;
43529;SDS011;55654;50.966;6.878;2023-01-01T00:29:22;13.03;;;5.90;;
43529;SDS011;55654;50.966;6.878;2023-01-01T00:31:48;12.33;;;5.30;;
43529;SDS011;55654;50.966;6.878;2023-01-01T00:34:14;14.70;;;4.60;;
43529;SDS011;55654;50.966;6.878;2023-01-01T00:36:40;12.93;;;4.70;;
43529;SDS011;55654;50.966;6.878;2023-01-01T00:39:06;11.97;;;4.00;;
43529;SDS011;55654;50.966;6.878;2023-01-01T00:41:32;11.60;;;3.60;;
43529;SDS011;55654;50.966;6.878;2023-01-01T00:43:58;13.63;;;4.13;;
43529;SDS011;55654;50.966;6.878;2023-01-01T00:46:24;20.70;;;6.93;;
43529;SDS011;55654;50.966;6.878;2023-01-01T00:48:50;7.63;;;3.33;;
43529;SDS011;55654;50.966;6.878;2023-01-01T00:51:18;9.03;;;3.10;;
43529;SDS011;55654;50.966;6.878;2023-01-01T00:53:45;7.93;;;2.93;;
43529;SDS011;55654;50.966;6.878;2023-01-01T00:56:11;8.00;;;2.90;;
43529;SDS011;55654;50.966;6.878;2023-01-01T00:58:37;7.40;;;2.53;;
43529;SDS011;55654;50.966;6.878;2023-01-01T01:01:03;6.07;;;2.43;;
43529;SDS011;55654;50.966;6.878;2023-01-01T01:03:29;7.00;;;2.13;;
43529;SDS011;55654;50.966;6.878;2023-01-01T01:08:30;5.55;;;2.05;;
43529;SDS011;55654;50.966;6.878;2023-01-01T01:13:34;6.07;;;1.60;;
43529;SDS011;55654;50.966;6.878;2023-01-01T01:16:01;4.80;;;1.87;;
43529;SDS011;55654;50.966;6.878;2023-01-01T01:18:32;3.53;;;1.47;;
43529;SDS011;55654;50.966;6.878;2023-01-01T01:20:58;7.23;;;1.77;;
43529;SDS011;55654;50.966;6.878;2023-01-01T01:23:26;4.27;;;2.13;;
43529;SDS011;55654;50.966;6.878;2023-01-01T01:25:52;5.50;;;1.70;;
43529;SDS011;55654;50.966;6.878;2023-01-01T01:28:18;8.73;;;2.30;;
43529;SDS011;55654;50.966;6.878;2023-01-01T01:30:44;9.00;;;1.83;;
43529;SDS011;55654;50.966;6.878;2023-01-01T01:33:10;12.57;;;1.97;;
43529;SDS011;55654;50.966;6.878;2023-01-01T01:35:36;4.47;;;1.47;;
43529;SDS011;55654;50.966;6.878;2023-01-01T01:38:02;5.17;;;1.63;;
43529;SDS011;55654;50.966;6.878;2023-01-01T01:40:28;7.47;;;2.30;;
43529;SDS011;55654;50.966;6.878;2023-01-01T01:42:54;5.97;;;1.57;;
43529;SDS011;55654;50.966;6.878;2023-01-01T01:45:20;4.70;;;1.70;;
43529;SDS011;55654;50.966;6.878;2023-01-01T01:50:27;5.77;;;1.60;;
43529;SDS011;55654;50.966;6.878;2023-01-01T01:53:04;3.27;;;1.20;;
43529;SDS011;55654;50.966;6.878;2023-01-01T01:55:33;5.17;;;1.37;;
43529;SDS011;55654;50.966;6.878;2023-01-01T01:58:00;4.53;;;1.53;;
43529;SDS011;55654;50.966;6.878;2023-01-01T02:00:27;5.30;;;1.87;;
43529;SDS011;55654;50.966;6.878;2023-01-01T02:05:19;5.57;;;1.60;;
43529;SDS011;55654;50.966;6.878;2023-01-01T02:07:47;5.30;;;1.67;;
43529;SDS011;55654;50.966;6.878;2023-01-01T02:10:13;4.80;;;1.20;;
43529;SDS011;55654;50.966;6.878;2023-01-01T02:12:40;5.57;;;1.50;;
43529;SDS011;55654;50.966;6.878;2023-01-01T02:15:08;4.90;;;1.60;;
43529;SDS011;55654;50.966;6.878;2023-01-01T02:20:14;2.30;;;1.20;;
43529;SDS011;55654;50.966;6.878;2023-01-01T02:25:27;5.00;;;1.13;;
43529;SDS011;55654;50.966;6.878;2023-01-01T02:28:18;10.07;;;1.75;;
43529;SDS011;55654;50.966;6.878;2023-01-01T02:30:49;8.33;;;1.73;;
43529;SDS011;55654;50.966;6.878;2023-01-01T02:33:19;6.53;;;1.30;;
43529;SDS011;55654;50.966;6.878;2023-01-01T02:35:57;7.87;;;1.67;;
43529;SDS011;55654;50.966;6.878;2023-01-01T02:38:38;6.93;;;1.47;;
43529;SDS011;55654;50.966;6.878;2023-01-01T02:41:08;5.20;;;1.27;;
43529;SDS011;55654;50.966;6.878;2023-01-01T02:43:36;7.53;;;1.47;;
43529;SDS011;55654;50.966;6.878;2023-01-01T02:46:05;8.17;;;1.47;;
43529;SDS011;55654;50.966;6.878;2023-01-01T02:51:02;6.40;;;1.33;;
43529;SDS011;55654;50.966;6.878;2023-01-01T02:53:31;8.40;;;1.83;;
43529;SDS011;55654;50.966;6.878;2023-01-01T02:58:34;1.67;;;0.97;;
43529;SDS011;55654;50.966;6.878;2023-01-01T03:01:28;4.80;;;1.27;;
43529;SDS011;55654;50.966;6.878;2023-01-01T03:04:00;5.03;;;1.23;;
43529;SDS011;55654;50.966;6.878;2023-01-01T03:06:48;2.53;;;0.97;;
43529;SDS011;55654;50.966;6.878;2023-01-01T03:09:22;4.80;;;1.37;;
43529;SDS011;55654;50.966;6.878;2023-01-01T03:11:55;4.70;;;1.63;;
43529;SDS011;55654;50.966;6.878;2023-01-01T03:17:14;3.43;;;1.20;;
43529;SDS011;55654;50.966;6.878;2023-01-01T03:19:48;7.60;;;1.20;;
43529;SDS011;55654;50.966;6.878;2023-01-01T03:22:16;7.10;;;1.10;;
43529;SDS011;55654;50.966;6.878;2023-01-01T03:24:54;4.00;;;1.27;;
43529;SDS011;55654;50.966;6.878;2023-01-01T03:27:26;6.13;;;1.57;;
43529;SDS011;55654;50.966;6.878;2023-01-01T03:29:54;5.00;;;1.40;;
43529;SDS011;55654;50.966;6.878;2023-01-01T03:32:23;3.03;;;1.47;;
43529;SDS011;55654;50.966;6.878;2023-01-01T03:35:11;4.17;;;0.83;;
43529;SDS011;55654;50.966;6.878;2023-01-01T03:37:39;4.57;;;1.13;;
43529;SDS011;55654;50.966;6.878;2023-01-01T03:40:06;6.50;;;1.20;;
43529;SDS011;55654;50.966;6.878;2023-01-01T03:42:43;3.60;;;1.10;;
43529;SDS011;55654;50.966;6.878;2023-01-01T03:45:12;4.17;;;1.00;;
43529;SDS011;55654;50.966;6.878;2023-01-01T03:47:41;2.80;;;1.30;;
43529;SDS011;55654;50.966;6.878;2023-01-01T03:50:08;3.33;;;1.40;;
43529;SDS011;55654;50.966;6.878;2023-01-01T03:52:46;5.60;;;1.87;;
43529;SDS011;55654;50.966;6.878;2023-01-01T03:55:28;5.83;;;1.60;;
43529;SDS011;55654;50.966;6.878;2023-01-01T04:00:34;5.95;;;1.58;;
43529;SDS011;55654;50.966;6.878;2023-01-01T04:03:07;7.83;;;2.47;;
43529;SDS011;55654;50.966;6.878;2023-01-01T04:05:35;6.87;;;1.13;;
43529;SDS011;55654;50.966;6.878;2023-01-01T04:08:02;6.73;;;1.77;;
43529;SDS011;55654;50.966;6.878;2023-01-01T04:10:30;5.73;;;1.40;;
43529;SDS011;55654;50.966;6.878;2023-01-01T04:12:59;3.23;;;1.10;;
43529;SDS011;55654;50.966;6.878;2023-01-01T04:15:27;5.73;;;1.20;;
43529;SDS011;55654;50.966;6.878;2023-01-01T04:17:53;4.70;;;1.47;;
43529;SDS011;55654;50.966;6.878;2023-01-01T04:20:20;8.07;;;1.50;;
43529;SDS011;55654;50.966;6.878;2023-01-01T04:22:46;6.60;;;1.50;;
43529;SDS011;55654;50.966;6.878;2023-01-01T04:25:12;5.10;;;1.30;;
43529;SDS011;55654;50.966;6.878;2023-01-01T04:27:39;4.13;;;1.40;;
43529;SDS011;55654;50.966;6.878;2023-01-01T04:30:09;9.20;;;1.73;;
43529;SDS011;55654;50.966;6.878;2023-01-01T04:32:37;7.83;;;1.70;;
43529;SDS011;55654;50.966;6.878;2023-01-01T04:35:04;5.97;;;1.47;;
43529;SDS011;55654;50.966;6.878;2023-01-01T04:37:36;5.37;;;1.13;;
43529;SDS011;55654;50.966;6.878;2023-01-01T04:40:07;5.60;;;1.83;;
43529;SDS011;55654;50.966;6.878;2023-01-01T04:42:33;6.93;;;1.20;;
43529;SDS011;55654;50.966;6.878;2023-01-01T04:44:59;5.03;;;1.07;;
43529;SDS011;55654;50.966;6.878;2023-01-01T04:47:25;4.90;;;1.20;;
43529;SDS011;55654;50.966;6.878;2023-01-01T04:49:52;5.10;;;1.30;;
43529;SDS011;55654;50.966;6.878;2023-01-01T04:52:18;9.67;;;1.30;;
43529;SDS011;55654;50.966;6.878;2023-01-01T04:54:44;5.70;;;1.70;;
43529;SDS011;55654;50.966;6.878;2023-01-01T04:57:10;4.93;;;1.33;;
43529;SDS011;55654;50.966;6.878;2023-01-01T04:59:36;7.60;;;1.40;;
43529;SDS011;55654;50.966;6.878;2023-01-01T05:02:02;6.40;;;1.43;;
43529;SDS011;55654;50.966;6.878;2023-01-01T05:04:28;9.00;;;1.40;;
43529;SDS011;55654;50.966;6.878;2023-01-01T05:06:54;9.57;;;2.00;;
43529;SDS011;55654;50.966;6.878;2023-01-01T05:09:20;8.60;;;1.73;;
43529;SDS011;55654;50.966;6.878;2023-01-01T05:11:46;6.53;;;1.47;;
43529;SDS011;55654;50.966;6.878;2023-01-01T05:14:15;5.40;;;1.50;;
43529;SDS011;55654;50.966;6.878;2023-01-01T05:16:41;9.23;;;1.70;;
43529;SDS011;55654;50.966;6.878;2023-01-01T05:19:09;7.70;;;1.80;;
43529;SDS011;55654;50.966;6.878;2023-01-01T05:21:36;5.83;;;1.77;;
43529;SDS011;55654;50.966;6.878;2023-01-01T05:24:04;3.57;;;1.43;;
43529;SDS011;55654;50.966;6.878;2023-01-01T05:26:34;5.90;;;1.37;;
43529;SDS011;55654;50.966;6.878;2023-01-01T05:29:02;5.53;;;1.92;;
43529;SDS011;55654;50.966;6.878;2023-01-01T05:31:30;7.07;;;1.77;;
43529;SDS011;55654;50.966;6.878;2023-01-01T05:33:57;6.37;;;1.43;;
43529;SDS011;55654;50.966;6.878;2023-01-01T05:36:24;8.30;;;1.50;;
43529;SDS011;55654;50.966;6.878;2023-01-01T05:38:50;6.93;;;1.20;;
43529;SDS011;55654;50.966;6.878;2023-01-01T05:41:17;5.20;;;1.40;;
43529;SDS011;55654;50.966;6.878;2023-01-01T05:43:44;6.00;;;1.50;;
43529;SDS011;55654;50.966;6.878;2023-01-01T05:48:38;7.57;;;1.47;;
43529;SDS011;55654;50.966;6.878;2023-01-01T05:51:09;5.90;;;1.43;;
43529;SDS011;55654;50.966;6.878;2023-01-01T05:53:35;7.07;;;1.47;;
43529;SDS011;55654;50.966;6.878;2023-01-01T05:56:02;3.43;;;1.40;;
43529;SDS011;55654;50.966;6.878;2023-01-01T05:58:28;5.23;;;1.43;;
43529;SDS011;55654;50.966;6.878;2023-01-01T06:01:00;6.23;;;1.50;;
43529;SDS011;55654;50.966;6.878;2023-01-01T06:03:29;3.10;;;1.33;;
43529;SDS011;55654;50.966;6.878;2023-01-01T06:05:55;7.10;;;1.70;;
43529;SDS011;55654;50.966;6.878;2023-01-01T06:08:21;4.37;;;1.63;;
43529;SDS011;55654;50.966;6.878;2023-01-01T06:10:47;11.23;;;2.07;;
43529;SDS011;55654;50.966;6.878;2023-01-01T06:13:13;9.60;;;1.43;;
43529;SDS011;55654;50.966;6.878;2023-01-01T06:15:39;8.07;;;1.90;;
43529;SDS011;55654;50.966;6.878;2023-01-01T06:18:05;7.53;;;1.73;;
43529;SDS011;55654;50.966;6.878;2023-01-01T06:20:31;7.73;;;1.40;;
43529;SDS011;55654;50.966;6.878;2023-01-01T06:22:57;10.13;;;2.10;;
43529;SDS011;55654;50.966;6.878;2023-01-01T06:25:23;5.60;;;1.50;;
43529;SDS011;55654;50.966;6.878;2023-01-01T06:27:49;6.37;;;1.53;;
43529;SDS011;55654;50.966;6.878;2023-01-01T06:30:16;3.83;;;1.43;;
43529;SDS011;55654;50.966;6.878;2023-01-01T06:32:44;5.73;;;1.93;;
43529;SDS011;55654;50.966;6.878;2023-01-01T06:35:10;7.37;;;1.60;;
43529;SDS011;55654;50.966;6.878;2023-01-01T06:37:36;5.70;;;2.10;;
43529;SDS011;55654;50.966;6.878;2023-01-01T06:40:02;5.20;;;1.37;;
43529;SDS011;55654;50.966;6.878;2023-01-01T06:42:28;8.97;;;1.87;;
43529;SDS011;55654;50.966;6.878;2023-01-01T06:44:57;4.03;;;1.40;;
43529;SDS011;55654;50.966;6.878;2023-01-01T06:47:23;4.73;;;1.50;;
43529;SDS011;55654;50.966;6.878;2023-01-01T06:49:49;4.43;;;1.50;;
43529;SDS011;55654;50.966;6.878;2023-01-01T06:52:15;3.93;;;1.87;;
43529;SDS011;55654;50.966;6.878;2023-01-01T06:54:43;4.73;;;1.53;;
43529;SDS011;55654;50.966;6.878;2023-01-01T06:57:09;5.67;;;1.87;;
43529;SDS011;55654;50.966;6.878;2023-01-01T06:59:35;11.93;;;1.83;;
43529;SDS011;55654;50.966;6.878;2023-01-01T07:02:01;6.10;;;1.80;;
43529;SDS011;55654;50.966;6.878;2023-01-01T07:04:27;9.33;;;2.47;;
43529;SDS011;55654;50.966;6.878;2023-01-01T07:06:53;6.70;;;1.60;;
43529;SDS011;55654;50.966;6.878;2023-01-01T07:09:19;4.30;;;1.80;;
43529;SDS011;55654;50.966;6.878;2023-01-01T07:11:45;8.67;;;1.40;;
43529;SDS011;55654;50.966;6.878;2023-01-01T07:14:11;9.03;;;2.40;;
43529;SDS011;55654;50.966;6.878;2023-01-01T07:16:37;4.90;;;1.73;;
43529;SDS011;55654;50.966;6.878;2023-01-01T07:19:03;7.30;;;1.83;;
43529;SDS011;55654;50.966;6.878;2023-01-01T07:21:36;4.90;;;1.60;;
43529;SDS011;55654;50.966;6.878;2023-01-01T07:24:04;4.90;;;1.73;;
43529;SDS011;55654;50.966;6.878;2023-01-01T07:26:32;13.57;;;1.77;;
43529;SDS011;55654;50.966;6.878;2023-01-01T07:28:58;5.97;;;1.80;;
43529;SDS011;55654;50.966;6.878;2023-01-01T07:31:25;9.97;;;2.60;;
43529;SDS011;55654;50.966;6.878;2023-01-01T07:33:51;5.33;;;2.33;;
43529;SDS011;55654;50.966;6.878;2023-01-01T07:36:17;4.90;;;1.80;;
43529;SDS011;55654;50.966;6.878;2023-01-01T07:38:43;11.03;;;2.07;;
43529;SDS011;55654;50.966;6.878;2023-01-01T07:41:09;9.13;;;2.23;;
43529;SDS011;55654;50.966;6.878;2023-01-01T07:43:35;6.70;;;2.00;;
43529;SDS011;55654;50.966;6.878;2023-01-01T07:46:01;6.77;;;2.37;;
43529;SDS011;55654;50.966;6.878;2023-01-01T07:48:30;7.10;;;1.83;;
43529;SDS011;55654;50.966;6.878;2023-01-01T07:50:56;6.43;;;2.17;;
43529;SDS011;55654;50.966;6.878;2023-01-01T07:53:24;6.57;;;1.67;;
43529;SDS011;55654;50.966;6.878;2023-01-01T07:55:50;6.50;;;1.50;;
43529;SDS011;55654;50.966;6.878;2023-01-01T07:58:16;6.70;;;2.13;;
43529;SDS011;55654;50.966;6.878;2023-01-01T08:00:44;9.60;;;1.83;;
43529;SDS011;55654;50.966;6.878;2023-01-01T08:03:10;5.93;;;1.80;;
43529;SDS011;55654;50.966;6.878;2023-01-01T08:05:36;8.47;;;2.30;;
43529;SDS011;55654;50.966;6.878;2023-01-01T08:08:05;8.77;;;2.20;;
43529;SDS011;55654;50.966;6.878;2023-01-01T08:10:31;7.00;;;1.57;;
43529;SDS011;55654;50.966;6.878;2023-01-01T08:13:00;7.93;;;1.40;;
43529;SDS011;55654;50.966;6.878;2023-01-01T08:15:26;7.80;;;1.90;;
43529;SDS011;55654;50.966;6.878;2023-01-01T08:17:59;5.27;;;2.37;;
43529;SDS011;55654;50.966;6.878;2023-01-01T08:20:26;6.63;;;2.27;;
43529;SDS011;55654;50.966;6.878;2023-01-01T08:22:55;10.17;;;2.83;;
43529;SDS011;55654;50.966;6.878;2023-01-01T08:25:21;9.97;;;1.80;;
43529;SDS011;55654;50.966;6.878;2023-01-01T08:27:47;9.50;;;2.40;;
43529;SDS011;55654;50.966;6.878;2023-01-01T08:30:16;11.17;;;1.80;;
43529;SDS011;55654;50.966;6.878;2023-01-01T08:32:42;6.93;;;1.67;;
43529;SDS011;55654;50.966;6.878;2023-01-01T08:35:08;9.27;;;2.10;;
43529;SDS011;55654;50.966;6.878;2023-01-01T08:37:34;4.83;;;2.00;;
43529;SDS011;55654;50.966;6.878;2023-01-01T08:40:00;11.30;;;2.47;;
43529;SDS011;55654;50.966;6.878;2023-01-01T08:42:26;5.87;;;2.00;;
43529;SDS011;55654;50.966;6.878;2023-01-01T08:44:52;5.50;;;2.07;;
43529;SDS011;55654;50.966;6.878;2023-01-01T08:47:23;6.10;;;2.07;;
43529;SDS011;55654;50.966;6.878;2023-01-01T08:49:49;6.03;;;1.73;;
43529;SDS011;55654;50.966;6.878;2023-01-01T08:52:15;8.47;;;1.57;;
43529;SDS011;55654;50.966;6.878;2023-01-01T08:54:41;6.20;;;1.60;;
43529;SDS011;55654;50.966;6.878;2023-01-01T08:57:10;8.97;;;1.87;;
43529;SDS011;55654;50.966;6.878;2023-01-01T08:59:36;9.33;;;1.93;;
43529;SDS011;55654;50.966;6.878;2023-01-01T09:02:05;5.93;;;2.07;;
43529;SDS011;55654;50.966;6.878;2023-01-01T09:04:31;6.13;;;1.67;;
43529;SDS011;55654;50.966;6.878;2023-01-01T09:06:57;7.80;;;2.10;;
43529;SDS011;55654;50.966;6.878;2023-01-01T09:09:23;7.20;;;1.90;;
43529;SDS011;55654;50.966;6.878;2023-01-01T09:11:50;7.53;;;1.80;;
43529;SDS011;55654;50.966;6.878;2023-01-01T09:14:19;6.60;;;1.87;;
43529;SDS011;55654;50.966;6.878;2023-01-01T09:16:45;8.27;;;1.50;;
43529;SDS011;55654;50.966;6.878;2023-01-01T09:19:11;7.57;;;2.17;;
43529;SDS011;55654;50.966;6.878;2023-01-01T09:21:37;5.50;;;1.50;;
43529;SDS011;55654;50.966;6.878;2023-01-01T09:24:04;5.93;;;2.73;;
43529;SDS011;55654;50.966;6.878;2023-01-01T09:26:30;7.07;;;2.20;;
43529;SDS011;55654;50.966;6.878;2023-01-01T09:28:58;9.07;;;2.10;;
43529;SDS011;55654;50.966;6.878;2023-01-01T09:31:27;10.43;;;2.37;;
43529;SDS011;55654;50.966;6.878;2023-01-01T09:33:58;5.83;;;1.70;;
43529;SDS011;55654;50.966;6.878;2023-01-01T09:38:50;9.33;;;2.20;;
43529;SDS011;55654;50.966;6.878;2023-01-01T09:43:49;10.13;;;2.17;;
43529;SDS011;55654;50.966;6.878;2023-01-01T09:46:19;6.73;;;1.70;;
43529;SDS011;55654;50.966;6.878;2023-01-01T09:48:51;8.07;;;2.30;;
43529;SDS011;55654;50.966;6.878;2023-01-01T09:51:19;8.93;;;1.40;;
43529;SDS011;55654;50.966;6.878;2023-01-01T09:53:57;8.93;;;1.80;;
43529;SDS011;55654;50.966;6.878;2023-01-01T09:56:26;8.00;;;1.97;;
43529;SDS011;55654;50.966;6.878;2023-01-01T09:58:55;10.57;;;2.10;;
43529;SDS011;55654;50.966;6.878;2023-01-01T10:04:16;6.73;;;1.50;;
43529;SDS011;55654;50.966;6.878;2023-01-01T10:09:40;5.38;;;1.67;;
43529;SDS011;55654;50.966;6.878;2023-01-01T10:12:18;8.13;;;1.80;;
43529;SDS011;55654;50.966;6.878;2023-01-01T10:14:54;7.60;;;1.50;;
43529;SDS011;55654;50.966;6.878;2023-01-01T10:22:52;8.85;;;1.90;;
43529;SDS011;55654;50.966;6.878;2023-01-01T10:30:20;6.53;;;1.93;;
43529;SDS011;55654;50.966;6.878;2023-01-01T10:32:47;6.63;;;1.60;;
43529;SDS011;55654;50.966;6.878;2023-01-01T10:35:56;9.40;;;2.33;;
43529;SDS011;55654;50.966;6.878;2023-01-01T10:38:03;6.80;;;1.70;;
43529;SDS011;55654;50.966;6.878;2023-01-01T10:40:30;6.83;;;1.87;;
43529;SDS011;55654;50.966;6.878;2023-01-01T10:42:57;8.47;;;1.87;;
43529;SDS011;55654;50.966;6.878;2023-01-01T10:48:12;5.83;;;2.07;;
43529;SDS011;55654;50.966;6.878;2023-01-01T10:53:20;8.90;;;2.28;;
43529;SDS011;55654;50.966;6.878;2023-01-01T10:55:47;7.33;;;2.07;;
43529;SDS011;55654;50.966;6.878;2023-01-01T10:58:31;5.90;;;1.30;;
43529;SDS011;55654;50.966;6.878;2023-01-01T11:00:59;6.33;;;1.83;;
43529;SDS011;55654;50.966;6.878;2023-01-01T11:03:28;5.90;;;1.40;;
43529;SDS011;55654;50.966;6.878;2023-01-01T11:08:27;6.43;;;1.80;;
43529;SDS011;55654;50.966;6.878;2023-01-01T11:10:54;5.55;;;1.67;;
43529;SDS011;55654;50.966;6.878;2023-01-01T11:13:22;8.50;;;1.42;;
43529;SDS011;55654;50.966;6.878;2023-01-01T11:15:48;8.52;;;2.10;;
43529;SDS011;55654;50.966;6.878;2023-01-01T11:18:19;4.15;;;1.70;;
43529;SDS011;55654;50.966;6.878;2023-01-01T11:20:50;5.53;;;1.50;;
43529;SDS011;55654;50.966;6.878;2023-01-01T11:23:17;6.80;;;2.17;;
43529;SDS011;55654;50.966;6.878;2023-01-01T11:25:58;9.40;;;1.67;;
43529;SDS011;55654;50.966;6.878;2023-01-01T11:28:24;6.18;;;1.58;;
43529;SDS011;55654;50.966;6.878;2023-01-01T11:31:36;6.80;;;1.33;;
43529;SDS011;55654;50.966;6.878;2023-01-01T11:33:58;8.03;;;2.10;;
43529;SDS011;55654;50.966;6.878;2023-01-01T11:36:24;8.77;;;1.90;;
43529;SDS011;55654;50.966;6.878;2023-01-01T11:41:46;8.50;;;2.10;;
43529;SDS011;55654;50.966;6.878;2023-01-01T11:44:13;8.77;;;1.40;;
43529;SDS011;55654;50.966;6.878;2023-01-01T11:46:46;7.33;;;1.40;;
43529;SDS011;55654;50.966;6.878;2023-01-01T11:49:13;7.03;;;2.07;;
43529;SDS011;55654;50.966;6.878;2023-01-01T11:51:39;10.63;;;2.40;;
43529;SDS011;55654;50.966;6.878;2023-01-01T11:54:10;5.07;;;1.47;;
43529;SDS011;55654;50.966;6.878;2023-01-01T11:56:39;8.57;;;1.73;;
43529;SDS011;55654;50.966;6.878;2023-01-01T11:59:14;11.30;;;2.53;;
43529;SDS011;55654;50.966;6.878;2023-01-01T12:01:48;10.88;;;4.28;;
43529;SDS011;55654;50.966;6.878;2023-01-01T12:09:15;8.93;;;2.07;;
43529;SDS011;55654;50.966;6.878;2023-01-01T12:11:45;8.30;;;1.95;;
43529;SDS011;55654;50.966;6.878;2023-01-01T12:14:28;7.77;;;2.17;;
43529;SDS011;55654;50.966;6.878;2023-01-01T12:16:58;5.87;;;1.60;;
43529;SDS011;55654;50.966;6.878;2023-01-01T12:19:27;9.57;;;2.20;;
43529;SDS011;55654;50.966;6.878;2023-01-01T12:21:56;6.10;;;1.20;;
43529;SDS011;55654;50.966;6.878;2023-01-01T12:24:24;6.53;;;1.73;;
43529;SDS011;55654;50.966;6.878;2023-01-01T12:27:00;6.83;;;1.40;;
43529;SDS011;55654;50.966;6.878;2023-01-01T12:29:39;5.50;;;1.55;;
43529;SDS011;55654;50.966;6.878;2023-01-01T12:32:10;5.10;;;1.73;;
43529;SDS011;55654;50.966;6.878;2023-01-01T12:45:17;9.70;;;1.80;;
43529;SDS011;55654;50.966;6.878;2023-01-01T12:48:01;6.23;;;1.93;;
43529;SDS011;55654;50.966;6.878;2023-01-01T12:58:23;6.77;;;2.30;;
43529;SDS011;55654;50.966;6.878;2023-01-01T13:00:53;13.40;;;2.43;;
43529;SDS011;55654;50.966;6.878;2023-01-01T13:03:29;8.50;;;3.07;;
43529;SDS011;55654;50.966;6.878;2023-01-01T13:06:00;9.40;;;2.20;;
43529;SDS011;55654;50.966;6.878;2023-01-01T13:08:26;8.97;;;2.30;;
43529;SDS011;55654;50.966;6.878;2023-01-01T13:10:55;8.43;;;1.70;;
43529;SDS011;55654;50.966;6.878;2023-01-01T13:13:24;8.60;;;2.22;;
43529;SDS011;55654;50.966;6.878;2023-01-01T13:15:51;9.33;;;2.17;;
43529;SDS011;55654;50.966;6.878;2023-01-01T13:18:22;9.53;;;1.97;;
43529;SDS011;55654;50.966;6.878;2023-01-01T13:28:38;8.43;;;1.53;;
43529;SDS011;55654;50.966;6.878;2023-01-01T13:31:04;6.53;;;1.47;;
43529;SDS011;55654;50.966;6.878;2023-01-01T13:33:32;8.17;;;1.80;;
43529;SDS011;55654;50.966;6.878;2023-01-01T13:51:42;7.00;;;2.13;;
43529;SDS011;55654;50.966;6.878;2023-01-01T14:09:50;4.50;;;1.23;;
43529;SDS011;55654;50.966;6.878;2023-01-01T14:12:17;9.67;;;1.40;;
43529;SDS011;55654;50.966;6.878;2023-01-01T14:14:44;7.23;;;1.50;;
43529;SDS011;55654;50.966;6.878;2023-01-01T14:17:13;4.73;;;1.23;;
43529;SDS011;55654;50.966;6.878;2023-01-01T14:19:40;11.40;;;1.80;;
43529;SDS011;55654;50.966;6.878;2023-01-01T14:22:07;5.80;;;1.67;;
43529;SDS011;55654;50.966;6.878;2023-01-01T14:24:35;4.93;;;1.57;;
43529;SDS011;55654;50.966;6.878;2023-01-01T14:27:04;3.90;;;1.80;;
43529;SDS011;55654;50.966;6.878;2023-01-01T14:29:30;9.33;;;1.73;;
43529;SDS011;55654;50.966;6.878;2023-01-01T14:32:00;8.43;;;1.43;;
43529;SDS011;55654;50.966;6.878;2023-01-01T14:34:36;5.83;;;1.57;;
43529;SDS011;55654;50.966;6.878;2023-01-01T14:37:03;6.97;;;1.30;;
43529;SDS011;55654;50.966;6.878;2023-01-01T14:41:57;7.33;;;1.50;;
43529;SDS011;55654;50.966;6.878;2023-01-01T14:44:26;4.27;;;1.30;;
43529;SDS011;55654;50.966;6.878;2023-01-01T14:46:54;5.63;;;1.13;;
43529;SDS011;55654;50.966;6.878;2023-01-01T14:51:59;3.73;;;1.20;;
43529;SDS011;55654;50.966;6.878;2023-01-01T14:54:29;6.33;;;1.83;;
43529;SDS011;55654;50.966;6.878;2023-01-01T14:56:56;5.70;;;1.47;;
43529;SDS011;55654;50.966;6.878;2023-01-01T15:04:36;7.87;;;1.80;;
43529;SDS011;55654;50.966;6.878;2023-01-01T15:07:02;5.63;;;1.97;;
43529;SDS011;55654;50.966;6.878;2023-01-01T15:09:30;10.63;;;2.63;;
43529;SDS011;55654;50.966;6.878;2023-01-01T15:11:58;3.93;;;1.80;;
43529;SDS011;55654;50.966;6.878;2023-01-01T15:17:00;5.93;;;2.00;;
43529;SDS011;55654;50.966;6.878;2023-01-01T15:19:28;5.68;;;2.58;;
43529;SDS011;55654;50.966;6.878;2023-01-01T15:21:54;7.37;;;2.40;;
43529;SDS011;55654;50.966;6.878;2023-01-01T15:24:20;6.17;;;2.70;;
43529;SDS011;55654;50.966;6.878;2023-01-01T15:26:54;10.47;;;3.80;;
43529;SDS011;55654;50.966;6.878;2023-01-01T15:29:28;11.03;;;3.80;;
43529;SDS011;55654;50.966;6.878;2023-01-01T15:32:04;8.97;;;3.70;;
43529;SDS011;55654;50.966;6.878;2023-01-01T15:34:35;8.60;;;2.47;;
43529;SDS011;55654;50.966;6.878;2023-01-01T15:37:04;10.00;;;4.40;;
43529;SDS011;55654;50.966;6.878;2023-01-01T15:39:31;13.30;;;4.60;;
43529;SDS011;55654;50.966;6.878;2023-01-01T15:41:57;7.67;;;2.93;;
43529;SDS011;55654;50.966;6.878;2023-01-01T15:44:25;5.77;;;2.50;;
43529;SDS011;55654;50.966;6.878;2023-01-01T15:46:51;7.60;;;2.93;;
43529;SDS011;55654;50.966;6.878;2023-01-01T15:49:27;7.50;;;2.20;;
43529;SDS011;55654;50.966;6.878;2023-01-01T15:51:54;10.90;;;2.80;;
43529;SDS011;55654;50.966;6.878;2023-01-01T15:54:21;10.03;;;3.20;;
43529;SDS011;55654;50.966;6.878;2023-01-01T15:56:49;8.67;;;2.57;;
43529;SDS011;55654;50.966;6.878;2023-01-01T16:01:42;5.67;;;2.53;;
43529;SDS011;55654;50.966;6.878;2023-01-01T16:06:43;4.60;;;1.70;;
43529;SDS011;55654;50.966;6.878;2023-01-01T16:09:11;7.87;;;1.90;;
43529;SDS011;55654;50.966;6.878;2023-01-01T16:11:37;5.03;;;2.20;;
43529;SDS011;55654;50.966;6.878;2023-01-01T16:14:03;6.90;;;3.10;;
43529;SDS011;55654;50.966;6.878;2023-01-01T16:16:30;6.63;;;2.63;;
43529;SDS011;55654;50.966;6.878;2023-01-01T16:18:56;9.70;;;2.80;;
43529;SDS011;55654;50.966;6.878;2023-01-01T16:21:23;6.13;;;2.30;;
43529;SDS011;55654;50.966;6.878;2023-01-01T16:23:50;8.13;;;3.43;;
43529;SDS011;55654;50.966;6.878;2023-01-01T16:26:18;7.90;;;2.70;;
43529;SDS011;55654;50.966;6.878;2023-01-01T16:28:44;9.67;;;2.50;;
43529;SDS011;55654;50.966;6.878;2023-01-01T16:31:12;9.17;;;4.37;;
43529;SDS011;55654;50.966;6.878;2023-01-01T16:33:39;8.30;;;4.00;;
43529;SDS011;55654;50.966;6.878;2023-01-01T16:36:12;13.77;;;5.53;;
43529;SDS011;55654;50.966;6.878;2023-01-01T16:38:38;40.10;;;17.80;;
43529;SDS011;55654;50.966;6.878;2023-01-01T16:41:04;32.73;;;15.47;;
43529;SDS011;55654;50.966;6.878;2023-01-01T16:43:30;24.50;;;17.43;;
43529;SDS011;55654;50.966;6.878;2023-01-01T16:45:56;21.87;;;13.97;;
43529;SDS011;55654;50.966;6.878;2023-01-01T16:48:22;21.57;;;11.83;;
43529;SDS011;55654;50.966;6.878;2023-01-01T16:50:51;26.20;;;15.23;;
43529;SDS011;55654;50.966;6.878;2023-01-01T16:53:17;26.07;;;16.57;;
43529;SDS011;55654;50.966;6.878;2023-01-01T16:55:43;24.23;;;15.27;;
43529;SDS011;55654;50.966;6.878;2023-01-01T16:58:09;18.83;;;11.00;;
43529;SDS011;55654;50.966;6.878;2023-01-01T17:00:35;19.07;;;9.03;;
43529;SDS011;55654;50.966;6.878;2023-01-01T17:03:02;19.40;;;7.50;;
43529;SDS011;55654;50.966;6.878;2023-01-01T17:05:28;11.77;;;7.50;;
43529;SDS011;55654;50.966;6.878;2023-01-01T17:07:54;15.77;;;8.90;;
43529;SDS011;55654;50.966;6.878;2023-01-01T17:10:20;15.47;;;7.80;;
43529;SDS011;55654;50.966;6.878;2023-01-01T17:12:46;13.53;;;6.20;;
43529;SDS011;55654;50.966;6.878;2023-01-01T17:15:12;16.80;;;6.00;;